Big Lake, Indiana
Current Conditions -  °F | °C
As of 3:22 PM on Thursday 29 Jan 2015 (Local Time) from KFWA Reporting Station
Drizzle Drizzle  
Wind Chill: -5°   Ceiling: 1200
Heat Index:   Visibility: 2.5mi
Dew Point: -1°   Wind: 16mph
Humidity: 89%   Direction: 290°WNW
Pressure: 29.87"   Gusts: 22mph
Location:  41.1479°N, 85.4772°W
Report Text: KFWA 292022Z 29014G19KT 2 1/2SM -DZ BR OVC012 01/M01 A2987 RMK AO2 P0000 T00111006
Loading
Personal Weather Stations






























Interactive Weather Map New forecast layout! Learn more

10-Day Weather Forecast

Advertisements
Track Severe Weather on mobile